Time;durP1;ratioP1;P1;durP2;ratioP2;P2;SDS_P1;SDS_P2;PMS_P1;PMS_P2;Temp;Humidity;BMP_temperature;BMP_pressure;BME280_temperature;BME280_humidity;BME280_pressure;Samples;Min_cycle;Max_cycle;Signal;HPM_P1;HPM_P2
2022/08/08 00:00:12;;;;;;;1.90;0.20;;;22.50;62.50;;;;;;5064448;28;20052;-90
2022/08/08 00:03:08;;;;;;;1.50;0.30;;;22.60;62.60;;;;;;5064795;28;20139;-90
2022/08/08 00:06:06;;;;;;;0.70;0.30;;;22.50;61.90;;;;;;5049268;28;20673;-90
2022/08/08 00:08:50;;;;;;;1.58;0.32;;;22.50;61.90;;;;;;5031428;28;20509;-91
2022/08/08 00:11:38;;;;;;;0.90;0.25;;;22.50;61.90;;;;;;5062389;28;20489;-90
2022/08/08 00:14:40;;;;;;;2.00;0.30;;;22.50;62.20;;;;;;5086398;28;20041;-91
2022/08/08 00:17:31;;;;;;;3.03;0.20;;;22.50;62.40;;;;;;5064895;28;20650;-92
2022/08/08 00:20:37;;;;;;;1.33;0.20;;;22.30;62.30;;;;;;5057749;28;20044;-90
2022/08/08 00:23:34;;;;;;;1.05;0.20;;;22.40;63.30;;;;;;5032591;28;20053;-90
2022/08/08 00:26:15;;;;;;;2.70;0.30;;;22.30;63.20;;;;;;5044615;28;20053;-90
2022/08/08 00:29:02;;;;;;;1.52;0.30;;;22.30;62.60;;;;;;5062263;28;20053;-91
2022/08/08 00:31:38;;;;;;;1.35;0.20;;;22.30;63.30;;;;;;5049966;28;20052;-90
2022/08/08 00:38:16;;;;;;;0.75;0.20;;;22.40;63.70;;;;;;5065342;28;20052;-90
2022/08/08 00:41:37;;;;;;;1.25;0.30;;;22.40;63.70;;;;;;5046291;28;20132;-90
2022/08/08 00:44:33;;;;;;;0.93;0.43;;;22.50;64.10;;;;;;5015076;28;20449;-89
2022/08/08 00:47:10;;;;;;;1.17;0.30;;;22.50;63.40;;;;;;5040291;28;20054;-91
2022/08/08 00:50:22;;;;;;;1.08;0.20;;;22.40;63.00;;;;;;5054616;28;20519;-90
2022/08/08 00:53:15;;;;;;;1.05;0.28;;;22.40;62.90;;;;;;5060790;28;20045;-90
2022/08/08 00:56:01;;;;;;;1.60;0.30;;;22.40;63.70;;;;;;5052944;28;20120;-91
2022/08/08 00:59:10;;;;;;;1.27;0.20;;;22.50;64.00;;;;;;5052828;28;20048;-90
2022/08/08 01:01:58;;;;;;;0.80;0.30;;;22.50;63.20;;;;;;4978622;28;20139;-91
2022/08/08 01:04:45;;;;;;;0.95;0.30;;;22.50;64.40;;;;;;5066742;28;20034;-90
2022/08/08 01:07:33;;;;;;;2.83;0.45;;;22.40;63.90;;;;;;5038866;28;20064;-90
2022/08/08 01:10:49;;;;;;;1.48;0.20;;;22.40;64.30;;;;;;5046935;28;20033;-90
2022/08/08 01:13:41;;;;;;;2.03;0.30;;;22.30;64.30;;;;;;5061689;28;20560;-91
2022/08/08 01:16:44;;;;;;;0.85;0.20;;;22.30;64.20;;;;;;5051383;28;20041;-90
2022/08/08 01:19:22;;;;;;;0.90;0.35;;;22.30;65.30;;;;;;5050942;28;20045;-91
2022/08/08 01:22:35;;;;;;;2.63;0.32;;;22.30;65.70;;;;;;5038509;28;20044;-90
2022/08/08 01:25:24;;;;;;;1.25;0.35;;;22.30;65.80;;;;;;5057092;28;20364;-91
2022/08/08 01:28:31;;;;;;;2.05;0.32;;;22.30;66.50;;;;;;5043671;28;20041;-90
2022/08/08 01:31:05;;;;;;;;;;;22.30;66.00;;;;;;5046998;28;20081;-89
2022/08/08 01:33:53;;;;;;;1.23;0.40;;;22.30;65.60;;;;;;5039690;28;19928;-90
2022/08/08 01:37:08;;;;;;;2.95;0.60;;;22.30;65.50;;;;;;5029991;28;21208;-90
2022/08/08 01:40:22;;;;;;;3.33;0.43;;;22.30;65.30;;;;;;5050824;28;20049;-91
2022/08/08 01:43:15;;;;;;;1.05;0.45;;;22.30;65.50;;;;;;5049026;28;20049;-90
2022/08/08 01:46:01;;;;;;;1.23;0.40;;;22.20;64.70;;;;;;5046496;28;20132;-91
2022/08/08 01:48:54;;;;;;;3.17;0.73;;;22.20;65.70;;;;;;5062595;28;20041;-90
2022/08/08 01:51:47;;;;;;;0.90;0.30;;;22.20;66.50;;;;;;5064265;28;20048;-91
2022/08/08 01:54:39;;;;;;;0.82;0.30;;;22.20;65.90;;;;;;5045852;28;20057;-90
2022/08/08 01:57:49;;;;;;;1.83;0.40;;;22.10;65.30;;;;;;5065334;28;20065;-91
2022/08/08 02:01:08;;;;;;;1.85;0.38;;;22.10;65.30;;;;;;5078045;28;20881;-91
2022/08/08 02:04:03;;;;;;;1.65;0.38;;;22.10;65.20;;;;;;5075414;28;20048;-91
2022/08/08 02:06:38;;;;;;;1.80;0.38;;;22.10;65.80;;;;;;5047125;28;20128;-91
2022/08/08 02:09:41;;;;;;;0.70;0.40;;;21.90;65.90;;;;;;5062978;28;20049;-90
2022/08/08 02:12:35;;;;;;;1.42;0.50;;;21.70;66.50;;;;;;5076260;28;20041;-91
2022/08/08 02:15:10;;;;;;;3.20;0.32;;;21.90;66.40;;;;;;5060643;28;20071;-91
2022/08/08 02:17:49;;;;;;;2.45;0.25;;;21.90;66.30;;;;;;5031429;28;20512;-91
2022/08/08 02:20:26;;;;;;;2.17;0.28;;;21.90;66.70;;;;;;5059894;28;20052;-91
2022/08/08 02:23:24;;;;;;;1.25;0.45;;;21.80;66.60;;;;;;5064222;28;20037;-91
2022/08/08 02:26:29;;;;;;;1.98;0.55;;;21.80;67.10;;;;;;5069308;28;20127;-91
2022/08/08 02:29:24;;;;;;;2.60;0.30;;;21.80;67.70;;;;;;5066888;28;20497;-92
2022/08/08 02:32:36;;;;;;;1.10;0.30;;;21.70;68.20;;;;;;5052901;28;20048;-90
2022/08/08 02:35:03;;;;;;;0.45;0.38;;;21.60;69.00;;;;;;5080248;28;20043;-90
2022/08/08 02:37:55;;;;;;;0.70;0.55;;;21.80;69.00;;;;;;5041769;28;20383;-91
2022/08/08 02:40:44;;;;;;;1.10;0.60;;;21.90;68.80;;;;;;5055555;28;20441;-91
2022/08/08 02:43:53;;;;;;;1.50;0.40;;;21.80;69.20;;;;;;5045242;28;20071;-91
2022/08/08 02:46:51;;;;;;;1.77;0.63;;;21.90;69.30;;;;;;5046031;28;20130;-91
2022/08/08 02:49:35;;;;;;;2.20;0.47;;;21.50;70.60;;;;;;5043406;28;20052;-90
2022/08/08 02:52:55;;;;;;;5.88;0.60;;;21.20;72.70;;;;;;5062373;28;20049;-90
2022/08/08 02:55:32;;;;;;;2.40;0.65;;;21.20;75.20;;;;;;5053142;28;20053;-92
2022/08/08 02:58:38;;;;;;;1.63;0.40;;;20.90;76.40;;;;;;5032266;28;20489;-89
2022/08/08 03:01:28;;;;;;;1.38;0.40;;;21.10;78.00;;;;;;5075252;28;20084;-91
2022/08/08 03:04:51;;;;;;;1.25;0.40;;;21.10;78.30;;;;;;5046173;28;20794;-93
2022/08/08 03:07:49;;;;;;;2.83;0.40;;;20.80;80.90;;;;;;5060227;28;20409;-91
2022/08/08 03:10:49;;;;;;;0.63;0.50;;;20.80;80.80;;;;;;5059588;28;20045;-91
2022/08/08 03:13:30;;;;;;;1.38;0.40;;;20.80;81.40;;;;;;5063301;28;20059;-91
2022/08/08 03:16:36;;;;;;;0.73;0.40;;;21.10;81.20;;;;;;5073431;28;20047;-91
2022/08/08 03:19:39;;;;;;;2.10;0.30;;;21.20;80.50;;;;;;5071960;28;20077;-90
2022/08/08 03:22:19;;;;;;;1.73;0.30;;;21.30;80.30;;;;;;5047189;28;20094;-90
2022/08/08 03:25:08;;;;;;;3.20;0.60;;;21.20;80.80;;;;;;5049657;28;20135;-91
2022/08/08 03:27:55;;;;;;;2.28;0.40;;;21.20;81.50;;;;;;5059124;28;20076;-90
2022/08/08 03:30:27;;;;;;;0.80;0.32;;;21.10;81.60;;;;;;5060070;28;20052;-91
2022/08/08 03:36:02;;;;;;;2.78;0.50;;;21.20;82.90;;;;;;5083308;28;20569;-90
2022/08/08 03:38:30;;;;;;;2.72;0.50;;;21.10;84.10;;;;;;5031139;28;20049;-91
2022/08/08 03:41:20;;;;;;;1.77;0.70;;;21.20;84.20;;;;;;5069779;28;20603;-91
2022/08/08 03:44:08;;;;;;;3.60;0.60;;;21.20;84.10;;;;;;5025921;28;20045;-91
2022/08/08 03:46:49;;;;;;;2.55;0.70;;;21.20;84.00;;;;;;5038918;28;20055;-91
2022/08/08 03:49:24;;;;;;;2.95;1.15;;;21.10;84.30;;;;;;5066898;28;20116;-91
2022/08/08 03:52:11;;;;;;;1.77;0.63;;;21.10;84.70;;;;;;5030627;28;20123;-92
2022/08/08 03:54:43;;;;;;;3.42;0.60;;;21.10;84.70;;;;;;5031432;28;20049;-90
2022/08/08 03:57:31;;;;;;;2.35;0.88;;;21.20;84.80;;;;;;5063596;28;20041;-90
2022/08/08 04:00:25;;;;;;;2.13;0.70;;;21.20;85.20;;;;;;5045247;28;20118;-91
2022/08/08 04:03:08;;;;;;;1.27;0.55;;;21.00;85.80;;;;;;5070243;28;20045;-91
2022/08/08 04:05:38;;;;;;;2.05;0.77;;;20.90;87.00;;;;;;5059125;28;20040;-91
2022/08/08 04:08:21;;;;;;;2.40;0.85;;;21.00;86.60;;;;;;5040734;28;20056;-92
2022/08/08 04:11:12;;;;;;;2.03;0.70;;;20.90;86.40;;;;;;5049348;28;20041;-90
2022/08/08 04:13:46;;;;;;;1.75;0.93;;;20.90;87.30;;;;;;5044064;28;20053;-91
2022/08/08 04:16:36;;;;;;;3.60;0.50;;;21.00;87.10;;;;;;5076488;28;20052;-91
2022/08/08 04:19:09;;;;;;;3.25;0.82;;;21.10;86.70;;;;;;5031650;28;20524;-91
2022/08/08 04:21:58;;;;;;;1.40;0.57;;;21.10;86.70;;;;;;5050948;28;20037;-90
2022/08/08 04:24:31;;;;;;;4.35;1.00;;;21.10;86.00;;;;;;5049443;28;20037;-92
2022/08/08 04:27:02;;;;;;;2.00;0.57;;;21.10;85.80;;;;;;5068178;28;20043;-91
2022/08/08 04:29:36;;;;;;;0.80;0.40;;;21.10;85.80;;;;;;5066834;28;20063;-91
2022/08/08 04:32:13;;;;;;;2.95;0.80;;;21.10;85.00;;;;;;5064686;28;20047;-91
2022/08/08 04:35:00;;;;;;;2.70;0.70;;;21.10;85.00;;;;;;5046799;28;20135;-92
2022/08/08 04:37:32;;;;;;;3.42;0.73;;;21.10;84.90;;;;;;5068643;28;20033;-92
2022/08/08 04:40:06;;;;;;;3.80;0.90;;;21.10;84.90;;;;;;5049524;28;20048;-91
2022/08/08 04:42:48;;;;;;;0.98;0.50;;;21.00;85.40;;;;;;5037352;28;20045;-92
2022/08/08 04:45:46;;;;;;;3.90;0.93;;;20.90;84.50;;;;;;5050270;28;20045;-92
2022/08/08 04:48:15;;;;;;;2.30;0.50;;;20.90;85.20;;;;;;5051472;28;20045;-91
2022/08/08 04:50:48;;;;;;;2.10;0.47;;;21.10;84.60;;;;;;5066962;28;20041;-90
2022/08/08 04:53:27;;;;;;;1.45;0.50;;;21.20;83.80;;;;;;5050954;28;20041;-91
2022/08/08 04:56:17;;;;;;;1.98;0.50;;;21.30;82.60;;;;;;5069821;28;20040;-91
2022/08/08 04:58:45;;;;;;;4.45;0.50;;;21.40;82.40;;;;;;5061905;28;20136;-89
2022/08/08 05:01:17;;;;;;;;;;;21.40;81.40;;;;;;5052738;28;20127;-88
2022/08/08 05:03:48;;;;;;;2.05;0.50;;;21.40;81.50;;;;;;5076318;28;19921;-92
2022/08/08 05:06:39;;;;;;;2.40;0.50;;;21.40;80.60;;;;;;5039062;28;20041;-90
2022/08/08 05:09:09;;;;;;;0.88;0.47;;;21.40;80.20;;;;;;5056843;28;21284;-91
2022/08/08 05:11:40;;;;;;;1.35;0.70;;;21.50;80.20;;;;;;5041819;28;20048;-92
2022/08/08 05:14:14;;;;;;;3.63;0.70;;;21.50;79.10;;;;;;5063247;28;20044;-93
2022/08/08 05:16:49;;;;;;;1.75;0.95;;;21.40;79.60;;;;;;5057053;28;20135;-91
2022/08/08 05:19:28;;;;;;;1.25;0.63;;;21.40;80.30;;;;;;5076489;28;20044;-93
2022/08/08 05:22:18;;;;;;;2.25;0.43;;;21.30;80.50;;;;;;5049759;28;20053;-92
2022/08/08 05:24:48;;;;;;;0.80;0.50;;;21.30;82.10;;;;;;5069541;28;20393;-91
2022/08/08 05:27:20;;;;;;;1.45;0.38;;;21.20;83.10;;;;;;5063732;28;20040;-90
2022/08/08 05:29:49;;;;;;;1.67;0.50;;;20.90;82.80;;;;;;5051647;28;20037;-92
2022/08/08 05:32:27;;;;;;;1.63;0.35;;;21.30;82.70;;;;;;5075196;28;20044;-91
2022/08/08 05:35:03;;;;;;;0.73;0.30;;;21.40;81.10;;;;;;5071557;28;20048;-89
2022/08/08 05:37:40;;;;;;;1.17;0.30;;;21.70;79.80;;;;;;5083885;28;20055;-90
2022/08/08 05:40:45;;;;;;;1.13;0.30;;;21.80;77.50;;;;;;5041408;28;20048;-92
2022/08/08 05:43:28;;;;;;;2.65;0.60;;;21.80;76.20;;;;;;5055751;28;20076;-91
2022/08/08 05:46:14;;;;;;;1.95;0.50;;;21.90;76.00;;;;;;5066149;28;20049;-91
2022/08/08 05:48:42;;;;;;;2.22;0.60;;;22.10;75.50;;;;;;5053310;28;20052;-92
2022/08/08 05:51:21;;;;;;;1.83;0.35;;;22.40;75.20;;;;;;5064196;28;20132;-92
2022/08/08 05:53:53;;;;;;;0.85;0.20;;;22.40;73.40;;;;;;5041767;28;20055;-90
2022/08/08 05:56:42;;;;;;;3.67;0.45;;;22.60;71.80;;;;;;5068351;28;20053;-92
2022/08/08 05:59:23;;;;;;;1.77;0.65;;;22.60;71.80;;;;;;5074367;28;20135;-92
2022/08/08 06:05:15;;;;;;;1.63;0.85;;;22.40;71.70;;;;;;5050975;28;20036;-92
2022/08/08 06:08:08;;;;;;;0.80;0.40;;;22.50;73.60;;;;;;5052413;28;20052;-90
2022/08/08 06:10:59;;;;;;;3.28;0.50;;;22.50;73.60;;;;;;5035090;28;20041;-90
2022/08/08 06:13:29;;;;;;;1.85;0.30;;;22.50;73.30;;;;;;5034950;28;20072;-88
2022/08/08 06:16:15;;;;;;;1.52;0.30;;;22.60;73.40;;;;;;5062481;28;20041;-91
2022/08/08 06:18:53;;;;;;;1.95;0.55;;;22.50;71.80;;;;;;5050337;28;20786;-92
2022/08/08 06:21:25;;;;;;;1.10;0.30;;;22.60;71.70;;;;;;5065152;28;20055;-90
2022/08/08 06:24:13;;;;;;;3.47;0.80;;;22.80;71.30;;;;;;5047016;28;20065;-86
2022/08/08 06:27:08;;;;;;;1.42;0.30;;;23.30;71.50;;;;;;5054551;28;20464;-91
2022/08/08 06:30:03;;;;;;;1.15;0.40;;;23.50;70.40;;;;;;5067253;28;20048;-94
2022/08/08 06:32:46;;;;;;;3.50;0.50;;;23.60;69.30;;;;;;5067456;28;20040;-90
2022/08/08 06:35:23;;;;;;;4.45;0.60;;;23.90;68.40;;;;;;5068187;28;20090;-90
2022/08/08 06:38:15;;;;;;;2.30;0.40;;;23.70;66.30;;;;;;5064538;28;20469;-88
2022/08/08 06:40:51;;;;;;;1.65;0.38;;;23.50;67.30;;;;;;5063654;28;20143;-93
2022/08/08 06:43:25;;;;;;;0.52;0.30;;;23.40;67.10;;;;;;5062825;28;20045;-92
2022/08/08 06:46:04;;;;;;;2.63;0.47;;;23.60;67.80;;;;;;5040497;28;20492;-91
2022/08/08 06:48:36;;;;;;;1.92;0.45;;;24.20;67.10;;;;;;5058274;28;20140;-92
2022/08/08 06:51:06;;;;;;;1.95;0.40;;;24.40;65.60;;;;;;5060863;28;20052;-91
2022/08/08 06:53:37;;;;;;;1.15;0.40;;;24.30;65.70;;;;;;5056587;28;20045;-90
2022/08/08 06:56:08;;;;;;;1.75;0.47;;;24.20;67.10;;;;;;5062584;28;20102;-88
2022/08/08 06:58:37;;;;;;;4.15;0.50;;;24.20;66.90;;;;;;5045723;28;20132;-88
2022/08/08 07:01:12;;;;;;;2.55;0.90;;;24.00;68.20;;;;;;5030419;28;20056;-89
2022/08/08 07:04:13;;;;;;;1.60;0.50;;;23.50;73.20;;;;;;5048985;28;20512;-88
2022/08/08 07:07:03;;;;;;;1.27;0.82;;;23.50;75.10;;;;;;5050472;28;20044;-90
2022/08/08 07:09:47;;;;;;;1.55;0.45;;;23.30;76.80;;;;;;5064783;28;20401;-90
2022/08/08 07:12:44;;;;;;;5.00;0.43;;;23.00;76.50;;;;;;5079433;28;20044;-91
2022/08/08 07:15:17;;;;;;;3.70;0.50;;;23.10;76.60;;;;;;5063632;28;20477;-89
2022/08/08 07:18:07;;;;;;;2.72;0.65;;;23.10;74.30;;;;;;5034233;28;20128;-90
2022/08/08 07:21:05;;;;;;;3.78;0.40;;;23.10;75.10;;;;;;5034448;28;20101;-94
2022/08/08 07:23:55;;;;;;;2.63;0.40;;;22.90;73.50;;;;;;5060599;28;20056;-93
2022/08/08 07:26:38;;;;;;;1.42;0.40;;;22.70;74.40;;;;;;5032010;28;20037;-91
2022/08/08 07:29:09;;;;;;;0.77;0.30;;;22.50;73.30;;;;;;5048364;28;20037;-92
2022/08/08 07:31:47;;;;;;;2.92;0.75;;;22.60;73.90;;;;;;5034619;28;20036;-89
2022/08/08 07:34:17;;;;;;;2.60;0.50;;;22.60;76.80;;;;;;5060294;28;20036;-91
2022/08/08 07:37:02;;;;;;;1.95;0.65;;;22.60;76.40;;;;;;5051244;28;20044;-88
2022/08/08 07:39:43;;;;;;;1.33;0.55;;;22.40;78.90;;;;;;5047770;28;20058;-88
2022/08/08 07:42:24;;;;;;;3.80;1.05;;;22.40;80.90;;;;;;5031636;28;20064;-90
2022/08/08 07:45:03;;;;;;;7.07;0.90;;;22.30;85.10;;;;;;5045990;28;20396;-91
2022/08/08 07:47:33;;;;;;;5.75;1.35;;;22.30;90.20;;;;;;5034604;28;20090;-88
2022/08/08 07:50:07;;;;;;;2.47;1.65;;;22.20;92.00;;;;;;5032790;28;20588;-88
2022/08/08 07:52:40;;;;;;;2.15;1.17;;;22.10;92.90;;;;;;5079414;28;20041;-89
2022/08/08 07:55:38;;;;;;;4.28;1.00;;;22.10;94.10;;;;;;5057813;28;20072;-89
2022/08/08 07:58:07;;;;;;;2.15;1.23;;;22.10;95.20;;;;;;5040749;28;20045;-88
2022/08/08 08:00:44;;;;;;;2.67;0.93;;;22.10;97.50;;;;;;5030438;28;20036;-89
2022/08/08 08:03:32;;;;;;;3.38;1.25;;;22.00;96.00;;;;;;5065037;28;20049;-90
2022/08/08 08:06:13;;;;;;;3.40;0.95;;;22.00;96.20;;;;;;5066890;28;20492;-89
2022/08/08 08:08:54;;;;;;;4.72;1.17;;;22.00;96.50;;;;;;5061553;28;20546;-90
2022/08/08 08:11:27;;;;;;;2.42;1.42;;;22.10;96.80;;;;;;5065607;28;20117;-90
2022/08/08 08:14:07;;;;;;;3.60;1.25;;;22.00;98.20;;;;;;5046234;28;20132;-90
2022/08/08 08:16:46;;;;;;;3.92;1.20;;;22.10;98.50;;;;;;5064081;28;20126;-89
2022/08/08 08:19:21;;;;;;;2.03;1.20;;;22.00;96.70;;;;;;5059980;28;20566;-90
2022/08/08 08:21:49;;;;;;;2.85;1.23;;;22.10;97.70;;;;;;5034179;28;20521;-90
2022/08/08 08:24:49;;;;;;;5.03;1.35;;;22.10;98.20;;;;;;5054741;28;20045;-91
2022/08/08 08:27:20;;;;;;;5.43;1.25;;;22.10;98.60;;;;;;5048446;28;20044;-91
2022/08/08 08:29:52;;;;;;;3.97;1.15;;;22.00;98.20;;;;;;5036707;28;20050;-91
2022/08/08 08:32:26;;;;;;;4.30;1.77;;;22.10;97.10;;;;;;5054024;28;20048;-91
2022/08/08 08:35:08;;;;;;;2.72;1.45;;;22.10;96.50;;;;;;5049985;28;20056;-92
2022/08/08 08:37:41;;;;;;;4.50;1.50;;;22.20;95.90;;;;;;5068349;28;20052;-92
2022/08/08 08:40:30;;;;;;;4.80;1.50;;;22.20;96.20;;;;;;5071074;28;20056;-92
2022/08/08 08:43:02;;;;;;;3.55;1.70;;;22.30;97.70;;;;;;5054284;28;20047;-92
2022/08/08 08:45:31;;;;;;;5.55;1.55;;;22.30;96.20;;;;;;5052161;28;20710;-92
2022/08/08 08:48:02;;;;;;;2.97;1.70;;;22.30;95.40;;;;;;5062250;28;20063;-92
2022/08/08 08:50:37;;;;;;;3.60;1.27;;;22.30;93.60;;;;;;5069076;28;22463;-93
2022/08/08 08:53:12;;;;;;;2.17;1.40;;;22.30;94.50;;;;;;5053975;28;20396;-92
2022/08/08 08:56:06;;;;;;;3.65;1.60;;;22.40;95.10;;;;;;5057373;28;20045;-92
2022/08/08 08:58:44;;;;;;;6.13;2.05;;;22.40;94.60;;;;;;5080024;28;20048;-92
2022/08/08 09:01:34;;;;;;;3.60;1.98;;;22.40;95.30;;;;;;5059821;28;20417;-91
2022/08/08 09:04:11;;;;;;;5.60;2.00;;;22.40;96.00;;;;;;5065270;28;20103;-92
2022/08/08 09:07:03;;;;;;;3.83;2.00;;;22.50;96.20;;;;;;5052386;28;20114;-91
2022/08/08 09:09:43;;;;;;;4.47;2.13;;;22.50;96.40;;;;;;5064951;28;20056;-92
2022/08/08 09:12:26;;;;;;;7.20;2.17;;;22.50;96.10;;;;;;5067092;28;20370;-92
2022/08/08 09:14:57;;;;;;;4.57;2.40;;;22.40;95.30;;;;;;5047493;28;20049;-90
2022/08/08 09:17:33;;;;;;;9.43;2.33;;;22.50;96.70;;;;;;5049835;28;20068;-91
2022/08/08 09:20:13;;;;;;;4.53;2.10;;;22.50;98.80;;;;;;5064853;28;20045;-90
2022/08/08 09:23:02;;;;;;;4.50;2.40;;;22.50;97.50;;;;;;5053150;28;20188;-90
2022/08/08 09:25:34;;;;;;;4.45;2.38;;;22.50;97.70;;;;;;5063079;28;20048;-91
2022/08/08 09:28:26;;;;;;;4.50;1.85;;;22.50;97.80;;;;;;5050878;28;20033;-90
2022/08/08 09:31:11;;;;;;;6.55;1.95;;;22.50;97.60;;;;;;5067321;28;20056;-91
2022/08/08 09:33:45;;;;;;;4.65;1.90;;;22.50;97.60;;;;;;5048940;28;20207;-91
2022/08/08 09:36:35;;;;;;;5.97;2.10;;;22.40;97.90;;;;;;5058619;28;20041;-90
2022/08/08 09:39:05;;;;;;;4.47;1.73;;;22.40;97.50;;;;;;5046469;28;20049;-90
2022/08/08 09:41:42;;;;;;;2.42;1.65;;;22.30;96.90;;;;;;5063504;28;20060;-90
2022/08/08 09:45:08;;;;;;;3.85;1.75;;;22.30;97.60;;;;;;5036062;28;20041;-91
2022/08/08 09:48:00;;;;;;;4.53;1.77;;;22.30;98.20;;;;;;5066349;28;20047;-88
2022/08/08 09:50:49;;;;;;;3.45;1.60;;;22.30;99.90;;;;;;5048783;28;20523;-89
2022/08/08 09:53:21;;;;;;;4.32;1.83;;;22.30;99.90;;;;;;5062545;28;20044;-89
2022/08/08 09:56:13;;;;;;;3.60;2.47;;;22.30;99.90;;;;;;5031300;28;20114;-90
2022/08/08 09:59:03;;;;;;;5.00;1.92;;;22.20;99.90;;;;;;5035206;28;20056;-88
2022/08/08 10:01:58;;;;;;;5.45;2.60;;;22.10;99.90;;;;;;5046985;28;20394;-87
2022/08/08 10:04:41;;;;;;;11.13;2.70;;;22.10;99.90;;;;;;5080666;28;20041;-86
2022/08/08 10:07:15;;;;;;;6.32;2.90;;;22.10;99.90;;;;;;5036726;28;20045;-86
2022/08/08 10:09:49;;;;;;;9.60;4.32;;;22.10;99.90;;;;;;5050984;28;20040;-86
2022/08/08 10:12:37;;;;;;;7.40;4.55;;;22.10;99.90;;;;;;5062876;28;20091;-86
2022/08/08 10:15:25;;;;;;;9.23;4.68;;;22.00;99.90;;;;;;5049568;28;20135;-88
2022/08/08 10:17:54;;;;;;;12.75;5.28;;;22.00;99.90;;;;;;5052461;28;20053;-88
2022/08/08 10:20:46;;;;;;;9.23;4.97;;;22.10;99.90;;;;;;5043126;28;20048;-89
2022/08/08 10:23:41;;;;;;;12.70;4.00;;;22.00;99.90;;;;;;5064093;28;20548;-89
2022/08/08 10:26:21;;;;;;;11.30;4.53;;;21.90;99.90;;;;;;5050374;28;20048;-89
2022/08/08 10:29:12;;;;;;;9.20;3.33;;;21.90;99.90;;;;;;5087157;28;20033;-89
2022/08/08 10:34:51;;;;;;;5.93;3.25;;;21.70;99.90;;;;;;5065748;28;20049;-90
2022/08/08 10:37:31;;;;;;;5.38;3.55;;;21.60;99.90;;;;;;5066690;28;20045;-90
2022/08/08 10:40:13;;;;;;;8.10;4.28;;;21.80;99.90;;;;;;5067844;28;20048;-91
2022/08/08 10:42:48;;;;;;;6.55;3.95;;;21.60;99.90;;;;;;5049657;28;20041;-89
2022/08/08 10:45:16;;;;;;;8.68;3.97;;;21.60;99.90;;;;;;5030734;28;20406;-91
2022/08/08 10:47:51;;;;;;;7.97;3.92;;;21.70;99.90;;;;;;5031029;28;20120;-92
2022/08/08 10:50:42;;;;;;;8.70;3.95;;;21.80;99.90;;;;;;5064065;28;20054;-91
2022/08/08 10:53:11;;;;;;;11.18;5.45;;;21.80;99.90;;;;;;5042435;28;20453;-91
2022/08/08 10:55:41;;;;;;;8.23;5.43;;;21.90;99.90;;;;;;5041966;28;20051;-92
2022/08/08 10:58:13;;;;;;;8.65;5.03;;;22.00;99.90;;;;;;5055935;28;20045;-90
2022/08/08 11:00:45;;;;;;;11.77;5.38;;;22.00;99.90;;;;;;5060592;28;20136;-89
2022/08/08 11:03:43;;;;;;;9.27;5.80;;;22.10;99.90;;;;;;5050825;28;20049;-91
2022/08/08 11:06:33;;;;;;;10.10;5.82;;;22.10;99.90;;;;;;5047091;28;20049;-90
2022/08/08 11:09:03;;;;;;;9.05;5.75;;;22.40;99.90;;;;;;5052783;28;20053;-89
2022/08/08 11:11:46;;;;;;;8.05;5.63;;;22.60;99.90;;;;;;5080564;28;20040;-90
2022/08/08 11:14:33;;;;;;;7.03;4.03;;;22.90;99.90;;;;;;5035488;28;20064;-91
2022/08/08 11:17:02;;;;;;;6.15;3.25;;;23.00;99.90;;;;;;5049558;28;20072;-87
2022/08/08 11:19:32;;;;;;;8.05;3.92;;;23.10;99.90;;;;;;5047550;28;20045;-87
2022/08/08 11:22:01;;;;;;;4.53;3.03;;;23.10;99.90;;;;;;5060968;28;20065;-87
2022/08/08 11:24:33;;;;;;;5.40;3.65;;;23.30;99.90;;;;;;5076262;28;20143;-88
2022/08/08 11:27:03;;;;;;;4.13;3.35;;;23.40;99.90;;;;;;5043042;28;20059;-91
2022/08/08 11:29:55;;;;;;;5.75;3.50;;;23.50;99.90;;;;;;5047743;28;20042;-88
2022/08/08 11:32:42;;;;;;;9.57;3.60;;;23.70;99.90;;;;;;5062427;28;20047;-90
2022/08/08 11:35:14;;;;;;;4.53;2.50;;;23.70;99.90;;;;;;5057134;28;20040;-93
2022/08/08 11:38:01;;;;;;;6.53;3.42;;;23.70;95.90;;;;;;5057149;28;20037;-91
2022/08/08 11:40:50;;;;;;;5.35;2.35;;;23.90;96.30;;;;;;5038968;28;20041;-91
2022/08/08 11:43:21;;;;;;;7.18;2.55;;;24.00;92.60;;;;;;5023597;28;20049;-92
2022/08/08 11:45:51;;;;;;;3.92;2.50;;;24.20;94.90;;;;;;5061077;28;20051;-94
2022/08/08 11:48:40;;;;;;;4.15;3.08;;;24.30;91.60;;;;;;5066197;28;20033;-92
2022/08/08 11:51:12;;;;;;;5.55;3.15;;;24.30;92.70;;;;;;5058020;28;20131;-90
2022/08/08 11:53:59;;;;;;;5.13;3.10;;;24.40;94.40;;;;;;5040499;28;20053;-90
2022/08/08 11:56:33;;;;;;;4.90;3.27;;;24.50;96.40;;;;;;5043265;28;20516;-88
2022/08/08 11:59:10;;;;;;;5.10;3.65;;;24.50;94.70;;;;;;5042967;28;20136;-87
2022/08/08 12:01:38;;;;;;;6.25;3.80;;;24.50;96.10;;;;;;5040650;28;20060;-87
2022/08/08 12:04:09;;;;;;;5.53;4.18;;;24.50;93.10;;;;;;5061174;28;20044;-89
2022/08/08 12:06:37;;;;;;;6.10;4.18;;;24.40;93.90;;;;;;5048160;28;20045;-90
2022/08/08 12:09:08;;;;;;;7.03;4.28;;;24.40;91.20;;;;;;5046397;28;20063;-89
2022/08/08 12:11:43;;;;;;;9.95;4.53;;;24.40;94.20;;;;;;5069186;28;20037;-89
2022/08/08 12:14:25;;;;;;;9.38;5.10;;;24.50;96.70;;;;;;5035524;28;20052;-88
2022/08/08 12:16:56;;;;;;;5.60;4.80;;;24.60;94.60;;;;;;5046151;28;20511;-89
2022/08/08 12:19:27;;;;;;;9.25;5.00;;;24.70;94.80;;;;;;5021320;28;20839;-89
2022/08/08 12:22:14;;;;;;;6.20;4.13;;;24.70;92.90;;;;;;5050587;28;20044;-89
2022/08/08 12:24:48;;;;;;;8.02;4.90;;;24.80;92.10;;;;;;5036426;28;20059;-90
2022/08/08 12:27:22;;;;;;;5.68;3.90;;;25.00;94.00;;;;;;5071346;28;20091;-90
2022/08/08 12:29:55;;;;;;;6.90;4.20;;;25.00;89.80;;;;;;5055976;28;20571;-88
2022/08/08 12:32:22;;;;;;;8.85;5.20;;;25.00;89.20;;;;;;5024525;28;20045;-85
2022/08/08 12:34:57;;;;;;;7.38;3.58;;;25.00;90.70;;;;;;5049558;28;20091;-88
2022/08/08 12:37:34;;;;;;;5.07;3.40;;;25.00;88.40;;;;;;5050307;28;20033;-93
2022/08/08 12:40:17;;;;;;;5.65;3.13;;;25.30;89.10;;;;;;5024774;28;20065;-90
2022/08/08 12:42:51;;;;;;;5.43;3.10;;;25.40;81.10;;;;;;5072334;28;20049;-89
2022/08/08 12:45:19;;;;;;;4.43;2.80;;;25.40;82.60;;;;;;5041227;28;20048;-92
2022/08/08 12:48:19;;;;;;;9.68;2.70;;;25.40;83.00;;;;;;5029443;28;20049;-91
2022/08/08 12:51:05;;;;;;;6.07;2.75;;;25.40;80.30;;;;;;5028431;28;20129;-88
2022/08/08 12:53:54;;;;;;;4.90;2.60;;;25.40;82.00;;;;;;5055691;28;20051;-94
2022/08/08 12:56:52;;;;;;;6.80;2.35;;;25.40;81.00;;;;;;5037667;28;20502;-89
2022/08/08 12:59:27;;;;;;;8.52;3.53;;;25.30;80.40;;;;;;5020680;28;20051;-93
2022/08/08 13:02:30;;;;;;;4.85;3.10;;;25.30;81.80;;;;;;5062324;28;20041;-88
2022/08/08 13:05:02;;;;;;;6.75;3.10;;;25.30;82.90;;;;;;5056521;28;20127;-92
2022/08/08 13:07:41;;;;;;;4.25;1.77;;;25.30;84.60;;;;;;5055352;28;20037;-89
2022/08/08 13:10:34;;;;;;;4.63;1.60;;;25.30;79.60;;;;;;5061544;28;20048;-93
2022/08/08 13:13:27;;;;;;;2.20;1.67;;;25.30;78.00;;;;;;5050565;28;20049;-86
2022/08/08 13:16:18;;;;;;;5.13;1.95;;;25.10;79.50;;;;;;5058077;28;20041;-90
2022/08/08 13:18:47;;;;;;;2.20;1.80;;;25.10;80.90;;;;;;5062655;28;20083;-92
2022/08/08 13:21:27;;;;;;;3.92;1.77;;;25.00;80.10;;;;;;5055940;28;20492;-92
2022/08/08 13:24:15;;;;;;;4.13;2.22;;;25.10;82.30;;;;;;5078986;28;20169;-93
2022/08/08 13:27:08;;;;;;;5.35;2.00;;;24.90;81.30;;;;;;5056643;28;20040;-93
2022/08/08 13:29:59;;;;;;;3.55;2.35;;;24.60;83.00;;;;;;5065603;28;20436;-91
2022/08/08 13:32:29;;;;;;;2.83;2.38;;;24.40;84.00;;;;;;5034704;28;20132;-93
2022/08/08 13:34:58;;;;;;;3.55;2.20;;;24.50;84.60;;;;;;5049861;28;20040;-89
2022/08/08 13:37:27;;;;;;;6.90;2.20;;;24.50;84.50;;;;;;5063922;28;22349;-91
2022/08/08 13:40:16;;;;;;;2.25;2.05;;;24.60;86.20;;;;;;5051530;28;20045;-93
2022/08/08 13:42:54;;;;;;;3.95;2.65;;;24.30;85.40;;;;;;5061052;28;20076;-93
2022/08/08 13:45:25;;;;;;;3.42;2.10;;;24.20;87.10;;;;;;5065446;28;20052;-91
2022/08/08 13:48:00;;;;;;;3.53;2.63;;;24.30;87.90;;;;;;5041707;28;20048;-91
2022/08/08 13:50:34;;;;;;;2.83;2.45;;;24.20;88.20;;;;;;5066665;28;20049;-91
2022/08/08 13:53:30;;;;;;;4.88;2.55;;;24.30;88.40;;;;;;5047304;28;20079;-92
2022/08/08 13:56:07;;;;;;;2.85;2.05;;;24.40;85.80;;;;;;5050919;28;20530;-87
2022/08/08 13:58:58;;;;;;;2.83;2.30;;;24.50;85.40;;;;;;5037714;28;20037;-92
2022/08/08 14:01:29;;;;;;;4.60;2.20;;;24.60;86.20;;;;;;5050498;28;20040;-92
2022/08/08 14:04:21;;;;;;;3.63;1.60;;;24.30;83.80;;;;;;5060193;28;20036;-91
2022/08/08 14:06:59;;;;;;;4.38;2.30;;;24.40;85.50;;;;;;5045211;28;20059;-90
2022/08/08 14:09:45;;;;;;;2.60;2.40;;;24.40;83.10;;;;;;5046084;28;20469;-83
2022/08/08 14:12:35;;;;;;;4.25;2.08;;;24.30;83.20;;;;;;5070427;28;20043;-91
2022/08/08 14:15:04;;;;;;;4.00;2.13;;;24.50;83.70;;;;;;5050568;28;20074;-90
2022/08/08 14:17:32;;;;;;;3.38;1.90;;;24.50;83.30;;;;;;5052015;28;20059;-88
2022/08/08 14:20:19;;;;;;;3.55;2.47;;;24.40;84.80;;;;;;5052128;28;20606;-87
2022/08/08 14:23:07;;;;;;;2.90;2.17;;;24.50;84.50;;;;;;5059684;28;20037;-91